sensor_id;sensor_type;location;lat;lon;timestamp;P1;durP1;ratioP1;P2;durP2;ratioP2
11522;SDS011;40093;43.224;27.910;2023-02-01T00:00:31;12.27;;;9.37;;
11522;SDS011;40093;43.224;27.910;2023-02-01T00:02:59;14.60;;;10.00;;
11522;SDS011;40093;43.224;27.910;2023-02-01T00:05:26;14.23;;;9.47;;
11522;SDS011;40093;43.224;27.910;2023-02-01T00:07:55;14.10;;;9.47;;
11522;SDS011;40093;43.224;27.910;2023-02-01T00:10:22;11.73;;;9.37;;
11522;SDS011;40093;43.224;27.910;2023-02-01T00:12:49;13.23;;;10.00;;
11522;SDS011;40093;43.224;27.910;2023-02-01T00:15:16;14.60;;;10.70;;
11522;SDS011;40093;43.224;27.910;2023-02-01T00:17:44;15.90;;;10.00;;
11522;SDS011;40093;43.224;27.910;2023-02-01T00:20:11;14.03;;;10.23;;
11522;SDS011;40093;43.224;27.910;2023-02-01T00:22:38;13.47;;;10.40;;
11522;SDS011;40093;43.224;27.910;2023-02-01T00:25:08;12.80;;;9.80;;
11522;SDS011;40093;43.224;27.910;2023-02-01T00:27:35;15.10;;;10.70;;
11522;SDS011;40093;43.224;27.910;2023-02-01T00:30:02;14.93;;;10.60;;
11522;SDS011;40093;43.224;27.910;2023-02-01T00:32:29;15.73;;;11.43;;
11522;SDS011;40093;43.224;27.910;2023-02-01T00:34:57;15.83;;;11.63;;
11522;SDS011;40093;43.224;27.910;2023-02-01T00:37:24;15.40;;;10.97;;
11522;SDS011;40093;43.224;27.910;2023-02-01T00:39:51;14.23;;;10.57;;
11522;SDS011;40093;43.224;27.910;2023-02-01T00:42:22;13.60;;;10.83;;
11522;SDS011;40093;43.224;27.910;2023-02-01T00:44:49;14.30;;;10.47;;
11522;SDS011;40093;43.224;27.910;2023-02-01T00:47:16;13.50;;;9.30;;
11522;SDS011;40093;43.224;27.910;2023-02-01T00:49:45;14.37;;;10.30;;
11522;SDS011;40093;43.224;27.910;2023-02-01T00:52:11;16.87;;;10.87;;
11522;SDS011;40093;43.224;27.910;2023-02-01T00:54:38;15.47;;;10.63;;
11522;SDS011;40093;43.224;27.910;2023-02-01T00:57:05;15.90;;;10.63;;
11522;SDS011;40093;43.224;27.910;2023-02-01T00:59:34;15.90;;;11.07;;
11522;SDS011;40093;43.224;27.910;2023-02-01T01:02:01;13.57;;;10.40;;
11522;SDS011;40093;43.224;27.910;2023-02-01T01:04:28;14.27;;;10.20;;
11522;SDS011;40093;43.224;27.910;2023-02-01T01:06:55;13.67;;;10.50;;
11522;SDS011;40093;43.224;27.910;2023-02-01T01:09:21;13.83;;;10.00;;
11522;SDS011;40093;43.224;27.910;2023-02-01T01:11:48;14.23;;;10.60;;
11522;SDS011;40093;43.224;27.910;2023-02-01T01:14:16;16.20;;;11.03;;
11522;SDS011;40093;43.224;27.910;2023-02-01T01:16:44;14.37;;;10.70;;
11522;SDS011;40093;43.224;27.910;2023-02-01T01:19:11;14.30;;;10.73;;
11522;SDS011;40093;43.224;27.910;2023-02-01T01:21:38;14.03;;;10.70;;
11522;SDS011;40093;43.224;27.910;2023-02-01T01:24:05;16.60;;;11.73;;
11522;SDS011;40093;43.224;27.910;2023-02-01T01:26:32;15.23;;;11.03;;
11522;SDS011;40093;43.224;27.910;2023-02-01T01:28:59;16.53;;;11.37;;
11522;SDS011;40093;43.224;27.910;2023-02-01T01:31:26;16.47;;;11.83;;
11522;SDS011;40093;43.224;27.910;2023-02-01T01:33:56;18.03;;;11.93;;
11522;SDS011;40093;43.224;27.910;2023-02-01T01:36:24;17.87;;;11.90;;
11522;SDS011;40093;43.224;27.910;2023-02-01T01:38:51;18.03;;;11.90;;
11522;SDS011;40093;43.224;27.910;2023-02-01T01:41:19;16.20;;;11.37;;
11522;SDS011;40093;43.224;27.910;2023-02-01T01:43:48;15.67;;;11.70;;
11522;SDS011;40093;43.224;27.910;2023-02-01T01:46:18;15.83;;;11.07;;
11522;SDS011;40093;43.224;27.910;2023-02-01T01:48:47;15.23;;;11.07;;
11522;SDS011;40093;43.224;27.910;2023-02-01T01:51:19;14.73;;;10.77;;
11522;SDS011;40093;43.224;27.910;2023-02-01T01:53:50;15.87;;;11.63;;
11522;SDS011;40093;43.224;27.910;2023-02-01T01:56:23;16.83;;;11.33;;
11522;SDS011;40093;43.224;27.910;2023-02-01T01:58:54;15.10;;;11.37;;
11522;SDS011;40093;43.224;27.910;2023-02-01T02:01:21;15.90;;;11.33;;
11522;SDS011;40093;43.224;27.910;2023-02-01T02:03:49;17.13;;;12.20;;
11522;SDS011;40093;43.224;27.910;2023-02-01T02:06:22;15.33;;;11.00;;
11522;SDS011;40093;43.224;27.910;2023-02-01T02:08:57;14.77;;;10.80;;
11522;SDS011;40093;43.224;27.910;2023-02-01T02:11:24;14.97;;;10.93;;
11522;SDS011;40093;43.224;27.910;2023-02-01T02:13:52;16.93;;;11.50;;
11522;SDS011;40093;43.224;27.910;2023-02-01T02:16:24;15.57;;;11.00;;
11522;SDS011;40093;43.224;27.910;2023-02-01T02:19:08;16.43;;;11.70;;
11522;SDS011;40093;43.224;27.910;2023-02-01T02:24:53;18.10;;;12.03;;
11522;SDS011;40093;43.224;27.910;2023-02-01T02:27:36;17.27;;;12.07;;
11522;SDS011;40093;43.224;27.910;2023-02-01T02:30:22;16.47;;;11.87;;
11522;SDS011;40093;43.224;27.910;2023-02-01T02:33:31;16.13;;;11.40;;
11522;SDS011;40093;43.224;27.910;2023-02-01T02:36:16;18.63;;;12.60;;
11522;SDS011;40093;43.224;27.910;2023-02-01T02:38:47;17.03;;;12.40;;
11522;SDS011;40093;43.224;27.910;2023-02-01T02:41:23;17.07;;;12.60;;
11522;SDS011;40093;43.224;27.910;2023-02-01T02:44:17;17.23;;;12.37;;
11522;SDS011;40093;43.224;27.910;2023-02-01T02:47:09;19.10;;;12.73;;
11522;SDS011;40093;43.224;27.910;2023-02-01T02:49:54;18.90;;;12.83;;
11522;SDS011;40093;43.224;27.910;2023-02-01T02:52:45;19.20;;;12.30;;
11522;SDS011;40093;43.224;27.910;2023-02-01T02:55:34;17.00;;;12.37;;
11522;SDS011;40093;43.224;27.910;2023-02-01T02:58:05;19.87;;;12.00;;
11522;SDS011;40093;43.224;27.910;2023-02-01T03:00:55;18.80;;;11.97;;
11522;SDS011;40093;43.224;27.910;2023-02-01T03:03:40;16.67;;;13.07;;
11522;SDS011;40093;43.224;27.910;2023-02-01T03:06:27;18.57;;;12.80;;
11522;SDS011;40093;43.224;27.910;2023-02-01T03:08:54;19.40;;;13.10;;
11522;SDS011;40093;43.224;27.910;2023-02-01T03:11:24;16.63;;;11.87;;
11522;SDS011;40093;43.224;27.910;2023-02-01T03:14:13;18.00;;;12.70;;
11522;SDS011;40093;43.224;27.910;2023-02-01T03:16:43;18.77;;;13.40;;
11522;SDS011;40093;43.224;27.910;2023-02-01T03:19:17;17.63;;;12.23;;
11522;SDS011;40093;43.224;27.910;2023-02-01T03:21:51;15.87;;;12.23;;
11522;SDS011;40093;43.224;27.910;2023-02-01T03:24:23;17.70;;;12.80;;
11522;SDS011;40093;43.224;27.910;2023-02-01T03:27:00;18.87;;;12.93;;
11522;SDS011;40093;43.224;27.910;2023-02-01T03:29:33;19.00;;;12.93;;
11522;SDS011;40093;43.224;27.910;2023-02-01T03:32:04;19.63;;;13.50;;
11522;SDS011;40093;43.224;27.910;2023-02-01T03:34:31;17.47;;;12.53;;
11522;SDS011;40093;43.224;27.910;2023-02-01T03:37:01;17.93;;;12.83;;
11522;SDS011;40093;43.224;27.910;2023-02-01T03:39:31;18.50;;;12.73;;
11522;SDS011;40093;43.224;27.910;2023-02-01T03:42:02;17.90;;;13.03;;
11522;SDS011;40093;43.224;27.910;2023-02-01T03:44:34;18.03;;;12.83;;
11522;SDS011;40093;43.224;27.910;2023-02-01T03:47:05;17.77;;;13.23;;
11522;SDS011;40093;43.224;27.910;2023-02-01T03:49:36;18.50;;;13.87;;
11522;SDS011;40093;43.224;27.910;2023-02-01T03:52:09;18.23;;;13.77;;
11522;SDS011;40093;43.224;27.910;2023-02-01T03:54:39;19.77;;;14.00;;
11522;SDS011;40093;43.224;27.910;2023-02-01T03:57:09;18.63;;;13.93;;
11522;SDS011;40093;43.224;27.910;2023-02-01T03:59:39;20.00;;;13.83;;
11522;SDS011;40093;43.224;27.910;2023-02-01T04:02:08;20.67;;;13.97;;
11522;SDS011;40093;43.224;27.910;2023-02-01T04:04:35;18.93;;;13.63;;
11522;SDS011;40093;43.224;27.910;2023-02-01T04:07:02;20.00;;;13.97;;
11522;SDS011;40093;43.224;27.910;2023-02-01T04:09:33;19.77;;;14.07;;
11522;SDS011;40093;43.224;27.910;2023-02-01T04:12:00;20.13;;;14.43;;
11522;SDS011;40093;43.224;27.910;2023-02-01T04:14:27;20.80;;;15.40;;
11522;SDS011;40093;43.224;27.910;2023-02-01T04:16:54;21.17;;;14.13;;
11522;SDS011;40093;43.224;27.910;2023-02-01T04:19:22;22.27;;;16.13;;
11522;SDS011;40093;43.224;27.910;2023-02-01T04:21:48;21.67;;;15.33;;
11522;SDS011;40093;43.224;27.910;2023-02-01T04:24:15;20.20;;;14.97;;
11522;SDS011;40093;43.224;27.910;2023-02-01T04:26:45;18.47;;;13.90;;
11522;SDS011;40093;43.224;27.910;2023-02-01T04:29:12;20.93;;;14.87;;
11522;SDS011;40093;43.224;27.910;2023-02-01T04:31:39;32.73;;;23.97;;
11522;SDS011;40093;43.224;27.910;2023-02-01T04:34:06;22.27;;;14.67;;
11522;SDS011;40093;43.224;27.910;2023-02-01T04:36:33;19.37;;;14.93;;
11522;SDS011;40093;43.224;27.910;2023-02-01T04:39:00;23.50;;;15.63;;
11522;SDS011;40093;43.224;27.910;2023-02-01T04:41:26;20.07;;;14.83;;
11522;SDS011;40093;43.224;27.910;2023-02-01T04:43:55;19.00;;;14.30;;
11522;SDS011;40093;43.224;27.910;2023-02-01T04:46:22;19.27;;;14.23;;
11522;SDS011;40093;43.224;27.910;2023-02-01T04:48:49;20.77;;;14.00;;
11522;SDS011;40093;43.224;27.910;2023-02-01T04:51:18;20.70;;;14.53;;
11522;SDS011;40093;43.224;27.910;2023-02-01T04:53:45;21.80;;;14.50;;
11522;SDS011;40093;43.224;27.910;2023-02-01T04:56:14;20.77;;;15.30;;
11522;SDS011;40093;43.224;27.910;2023-02-01T04:58:40;18.77;;;14.37;;
11522;SDS011;40093;43.224;27.910;2023-02-01T05:01:09;26.00;;;15.67;;
11522;SDS011;40093;43.224;27.910;2023-02-01T05:03:36;19.90;;;14.40;;
11522;SDS011;40093;43.224;27.910;2023-02-01T05:06:03;21.27;;;14.80;;
11522;SDS011;40093;43.224;27.910;2023-02-01T05:08:30;21.70;;;15.80;;
11522;SDS011;40093;43.224;27.910;2023-02-01T05:10:58;22.67;;;15.73;;
11522;SDS011;40093;43.224;27.910;2023-02-01T05:13:27;21.57;;;15.37;;
11522;SDS011;40093;43.224;27.910;2023-02-01T05:16:13;22.13;;;15.30;;
11522;SDS011;40093;43.224;27.910;2023-02-01T05:18:40;22.37;;;15.97;;
11522;SDS011;40093;43.224;27.910;2023-02-01T05:21:10;22.90;;;15.07;;
11522;SDS011;40093;43.224;27.910;2023-02-01T05:23:42;20.90;;;15.67;;
11522;SDS011;40093;43.224;27.910;2023-02-01T05:26:23;20.50;;;14.87;;
11522;SDS011;40093;43.224;27.910;2023-02-01T05:28:51;19.50;;;14.63;;
11522;SDS011;40093;43.224;27.910;2023-02-01T05:31:19;22.53;;;15.73;;
11522;SDS011;40093;43.224;27.910;2023-02-01T05:33:50;22.30;;;15.30;;
11522;SDS011;40093;43.224;27.910;2023-02-01T05:36:17;21.73;;;15.00;;
11522;SDS011;40093;43.224;27.910;2023-02-01T05:38:44;22.63;;;15.23;;
11522;SDS011;40093;43.224;27.910;2023-02-01T05:41:11;21.37;;;15.70;;
11522;SDS011;40093;43.224;27.910;2023-02-01T05:43:39;24.37;;;17.20;;
11522;SDS011;40093;43.224;27.910;2023-02-01T05:46:06;23.43;;;15.93;;
11522;SDS011;40093;43.224;27.910;2023-02-01T05:48:37;28.23;;;19.80;;
11522;SDS011;40093;43.224;27.910;2023-02-01T05:51:04;24.60;;;17.53;;
11522;SDS011;40093;43.224;27.910;2023-02-01T05:53:31;24.50;;;16.53;;
11522;SDS011;40093;43.224;27.910;2023-02-01T05:55:58;23.80;;;15.90;;
11522;SDS011;40093;43.224;27.910;2023-02-01T05:58:25;21.63;;;15.00;;
11522;SDS011;40093;43.224;27.910;2023-02-01T06:00:52;21.97;;;15.87;;
11522;SDS011;40093;43.224;27.910;2023-02-01T06:03:20;22.23;;;14.83;;
11522;SDS011;40093;43.224;27.910;2023-02-01T06:05:50;21.33;;;15.37;;
11522;SDS011;40093;43.224;27.910;2023-02-01T06:08:17;31.17;;;24.07;;
11522;SDS011;40093;43.224;27.910;2023-02-01T06:10:44;22.53;;;16.33;;
11522;SDS011;40093;43.224;27.910;2023-02-01T06:13:11;22.83;;;15.40;;
11522;SDS011;40093;43.224;27.910;2023-02-01T06:15:37;24.03;;;15.77;;
11522;SDS011;40093;43.224;27.910;2023-02-01T06:18:06;20.87;;;15.30;;
11522;SDS011;40093;43.224;27.910;2023-02-01T06:20:33;24.47;;;16.13;;
11522;SDS011;40093;43.224;27.910;2023-02-01T06:23:01;23.80;;;16.53;;
11522;SDS011;40093;43.224;27.910;2023-02-01T06:25:30;22.23;;;15.43;;
11522;SDS011;40093;43.224;27.910;2023-02-01T06:27:59;24.03;;;16.60;;
11522;SDS011;40093;43.224;27.910;2023-02-01T06:30:26;25.67;;;17.47;;
11522;SDS011;40093;43.224;27.910;2023-02-01T06:32:55;24.20;;;18.10;;
11522;SDS011;40093;43.224;27.910;2023-02-01T06:35:23;26.43;;;19.20;;
11522;SDS011;40093;43.224;27.910;2023-02-01T06:37:51;23.33;;;17.23;;
11522;SDS011;40093;43.224;27.910;2023-02-01T06:40:20;22.03;;;16.43;;
11522;SDS011;40093;43.224;27.910;2023-02-01T06:42:48;26.13;;;17.43;;
11522;SDS011;40093;43.224;27.910;2023-02-01T06:45:15;23.47;;;16.77;;
11522;SDS011;40093;43.224;27.910;2023-02-01T06:47:42;24.30;;;16.37;;
11522;SDS011;40093;43.224;27.910;2023-02-01T06:50:09;23.33;;;15.33;;
11522;SDS011;40093;43.224;27.910;2023-02-01T06:52:40;21.43;;;16.13;;
11522;SDS011;40093;43.224;27.910;2023-02-01T06:55:07;30.30;;;19.87;;
11522;SDS011;40093;43.224;27.910;2023-02-01T06:57:42;25.00;;;16.70;;
11522;SDS011;40093;43.224;27.910;2023-02-01T07:00:09;24.60;;;16.20;;
11522;SDS011;40093;43.224;27.910;2023-02-01T07:02:37;22.70;;;15.37;;
11522;SDS011;40093;43.224;27.910;2023-02-01T07:05:04;20.37;;;14.63;;
11522;SDS011;40093;43.224;27.910;2023-02-01T07:07:32;24.17;;;15.13;;
11522;SDS011;40093;43.224;27.910;2023-02-01T07:09:59;21.43;;;15.53;;
11522;SDS011;40093;43.224;27.910;2023-02-01T07:12:25;22.27;;;14.33;;
11522;SDS011;40093;43.224;27.910;2023-02-01T07:14:54;23.90;;;15.37;;
11522;SDS011;40093;43.224;27.910;2023-02-01T07:17:21;18.70;;;13.10;;
11522;SDS011;40093;43.224;27.910;2023-02-01T07:19:49;22.07;;;16.17;;
11522;SDS011;40093;43.224;27.910;2023-02-01T07:22:18;16.53;;;12.53;;
11522;SDS011;40093;43.224;27.910;2023-02-01T07:24:46;19.90;;;15.00;;
11522;SDS011;40093;43.224;27.910;2023-02-01T07:27:13;45.63;;;25.07;;
11522;SDS011;40093;43.224;27.910;2023-02-01T07:29:40;31.80;;;19.90;;
11522;SDS011;40093;43.224;27.910;2023-02-01T07:32:08;19.27;;;13.60;;
11522;SDS011;40093;43.224;27.910;2023-02-01T07:34:35;21.47;;;14.03;;
11522;SDS011;40093;43.224;27.910;2023-02-01T07:37:02;17.07;;;12.17;;
11522;SDS011;40093;43.224;27.910;2023-02-01T07:39:29;15.60;;;11.83;;
11522;SDS011;40093;43.224;27.910;2023-02-01T07:41:57;14.57;;;11.20;;
11522;SDS011;40093;43.224;27.910;2023-02-01T07:44:24;18.27;;;13.70;;
11522;SDS011;40093;43.224;27.910;2023-02-01T07:46:50;16.93;;;12.97;;
11522;SDS011;40093;43.224;27.910;2023-02-01T07:49:19;24.57;;;17.13;;
11522;SDS011;40093;43.224;27.910;2023-02-01T07:51:45;17.07;;;11.87;;
11522;SDS011;40093;43.224;27.910;2023-02-01T07:54:12;16.30;;;12.90;;
11522;SDS011;40093;43.224;27.910;2023-02-01T07:56:39;14.80;;;11.93;;
11522;SDS011;40093;43.224;27.910;2023-02-01T07:59:06;18.73;;;13.37;;
11522;SDS011;40093;43.224;27.910;2023-02-01T08:01:34;16.50;;;14.00;;
11522;SDS011;40093;43.224;27.910;2023-02-01T08:04:00;21.93;;;17.07;;
11522;SDS011;40093;43.224;27.910;2023-02-01T08:06:30;37.63;;;25.83;;
11522;SDS011;40093;43.224;27.910;2023-02-01T08:08:59;25.47;;;17.83;;
11522;SDS011;40093;43.224;27.910;2023-02-01T08:11:26;17.87;;;13.53;;
11522;SDS011;40093;43.224;27.910;2023-02-01T08:13:55;23.00;;;16.70;;
11522;SDS011;40093;43.224;27.910;2023-02-01T08:16:22;17.10;;;12.47;;
11522;SDS011;40093;43.224;27.910;2023-02-01T08:18:50;14.37;;;11.47;;
11522;SDS011;40093;43.224;27.910;2023-02-01T08:21:18;16.50;;;11.27;;
11522;SDS011;40093;43.224;27.910;2023-02-01T08:23:48;15.07;;;10.03;;
11522;SDS011;40093;43.224;27.910;2023-02-01T08:26:17;11.70;;;9.47;;
11522;SDS011;40093;43.224;27.910;2023-02-01T08:28:46;16.37;;;10.40;;
11522;SDS011;40093;43.224;27.910;2023-02-01T08:31:16;18.00;;;9.60;;
11522;SDS011;40093;43.224;27.910;2023-02-01T08:33:48;16.37;;;10.20;;
11522;SDS011;40093;43.224;27.910;2023-02-01T08:36:17;23.53;;;13.03;;
11522;SDS011;40093;43.224;27.910;2023-02-01T08:38:45;25.20;;;16.90;;
11522;SDS011;40093;43.224;27.910;2023-02-01T08:41:14;19.90;;;13.90;;
11522;SDS011;40093;43.224;27.910;2023-02-01T08:43:43;17.93;;;13.73;;
11522;SDS011;40093;43.224;27.910;2023-02-01T08:46:11;18.67;;;13.13;;
11522;SDS011;40093;43.224;27.910;2023-02-01T08:48:39;17.40;;;11.80;;
11522;SDS011;40093;43.224;27.910;2023-02-01T08:51:07;19.43;;;14.57;;
11522;SDS011;40093;43.224;27.910;2023-02-01T08:53:36;17.40;;;11.70;;
11522;SDS011;40093;43.224;27.910;2023-02-01T08:56:05;17.77;;;13.97;;
11522;SDS011;40093;43.224;27.910;2023-02-01T08:58:34;15.03;;;11.67;;
11522;SDS011;40093;43.224;27.910;2023-02-01T09:01:02;15.43;;;12.10;;
11522;SDS011;40093;43.224;27.910;2023-02-01T09:03:29;20.27;;;12.67;;
11522;SDS011;40093;43.224;27.910;2023-02-01T09:05:59;18.33;;;12.87;;
11522;SDS011;40093;43.224;27.910;2023-02-01T09:08:27;22.03;;;15.00;;
11522;SDS011;40093;43.224;27.910;2023-02-01T09:10:57;17.33;;;14.20;;
11522;SDS011;40093;43.224;27.910;2023-02-01T09:13:28;19.73;;;13.93;;
11522;SDS011;40093;43.224;27.910;2023-02-01T09:15:57;17.60;;;12.60;;
11522;SDS011;40093;43.224;27.910;2023-02-01T09:18:24;17.93;;;12.67;;
11522;SDS011;40093;43.224;27.910;2023-02-01T09:20:52;19.27;;;13.10;;
11522;SDS011;40093;43.224;27.910;2023-02-01T09:23:19;16.03;;;12.27;;
11522;SDS011;40093;43.224;27.910;2023-02-01T09:25:47;14.03;;;10.60;;
11522;SDS011;40093;43.224;27.910;2023-02-01T09:28:15;13.60;;;11.93;;
11522;SDS011;40093;43.224;27.910;2023-02-01T09:30:45;14.77;;;10.37;;
11522;SDS011;40093;43.224;27.910;2023-02-01T09:33:13;12.90;;;9.53;;
11522;SDS011;40093;43.224;27.910;2023-02-01T09:35:42;13.10;;;10.20;;
11522;SDS011;40093;43.224;27.910;2023-02-01T09:38:09;15.90;;;9.30;;
11522;SDS011;40093;43.224;27.910;2023-02-01T09:40:39;14.33;;;8.87;;
11522;SDS011;40093;43.224;27.910;2023-02-01T09:43:18;12.53;;;9.07;;
11522;SDS011;40093;43.224;27.910;2023-02-01T09:45:55;13.37;;;7.70;;
11522;SDS011;40093;43.224;27.910;2023-02-01T09:48:31;10.50;;;7.67;;
11522;SDS011;40093;43.224;27.910;2023-02-01T09:51:02;12.83;;;8.20;;
11522;SDS011;40093;43.224;27.910;2023-02-01T09:53:34;13.27;;;8.63;;
11522;SDS011;40093;43.224;27.910;2023-02-01T09:56:05;16.57;;;9.30;;
11522;SDS011;40093;43.224;27.910;2023-02-01T09:58:40;12.90;;;8.77;;
11522;SDS011;40093;43.224;27.910;2023-02-01T10:01:19;12.97;;;8.53;;
11522;SDS011;40093;43.224;27.910;2023-02-01T10:03:50;13.03;;;8.83;;
11522;SDS011;40093;43.224;27.910;2023-02-01T10:06:35;14.00;;;9.57;;
11522;SDS011;40093;43.224;27.910;2023-02-01T10:09:15;14.80;;;8.70;;
11522;SDS011;40093;43.224;27.910;2023-02-01T10:14:59;8.90;;;6.83;;
11522;SDS011;40093;43.224;27.910;2023-02-01T10:17:43;11.43;;;7.37;;
11522;SDS011;40093;43.224;27.910;2023-02-01T10:20:22;7.70;;;6.77;;
11522;SDS011;40093;43.224;27.910;2023-02-01T10:22:57;10.57;;;7.60;;
11522;SDS011;40093;43.224;27.910;2023-02-01T10:25:36;12.27;;;8.10;;
11522;SDS011;40093;43.224;27.910;2023-02-01T10:28:08;11.80;;;7.67;;
11522;SDS011;40093;43.224;27.910;2023-02-01T10:30:41;10.37;;;7.67;;
11522;SDS011;40093;43.224;27.910;2023-02-01T10:33:15;10.40;;;7.27;;
11522;SDS011;40093;43.224;27.910;2023-02-01T10:35:58;11.90;;;9.20;;
11522;SDS011;40093;43.224;27.910;2023-02-01T10:38:29;11.93;;;9.17;;
11522;SDS011;40093;43.224;27.910;2023-02-01T10:41:00;9.63;;;7.87;;
11522;SDS011;40093;43.224;27.910;2023-02-01T10:43:30;9.20;;;8.07;;
11522;SDS011;40093;43.224;27.910;2023-02-01T10:45:59;10.93;;;8.37;;
11522;SDS011;40093;43.224;27.910;2023-02-01T10:48:26;13.93;;;8.13;;
11522;SDS011;40093;43.224;27.910;2023-02-01T10:50:57;12.77;;;7.03;;
11522;SDS011;40093;43.224;27.910;2023-02-01T10:53:28;10.07;;;7.00;;
11522;SDS011;40093;43.224;27.910;2023-02-01T10:56:05;44.70;;;24.73;;
11522;SDS011;40093;43.224;27.910;2023-02-01T10:58:33;22.17;;;13.57;;
11522;SDS011;40093;43.224;27.910;2023-02-01T11:01:03;18.40;;;12.30;;
11522;SDS011;40093;43.224;27.910;2023-02-01T11:03:39;17.77;;;11.63;;
11522;SDS011;40093;43.224;27.910;2023-02-01T11:06:13;20.33;;;11.20;;
11522;SDS011;40093;43.224;27.910;2023-02-01T11:08:53;12.00;;;7.97;;
11522;SDS011;40093;43.224;27.910;2023-02-01T11:11:21;12.80;;;7.17;;
11522;SDS011;40093;43.224;27.910;2023-02-01T11:13:52;7.43;;;6.13;;
11522;SDS011;40093;43.224;27.910;2023-02-01T11:16:23;12.60;;;9.27;;
11522;SDS011;40093;43.224;27.910;2023-02-01T11:18:56;11.00;;;8.17;;
11522;SDS011;40093;43.224;27.910;2023-02-01T11:21:26;14.17;;;7.43;;
11522;SDS011;40093;43.224;27.910;2023-02-01T11:23:53;9.63;;;6.40;;
11522;SDS011;40093;43.224;27.910;2023-02-01T11:26:21;11.73;;;7.00;;
11522;SDS011;40093;43.224;27.910;2023-02-01T11:28:51;10.37;;;6.03;;
11522;SDS011;40093;43.224;27.910;2023-02-01T11:31:20;6.83;;;5.37;;
11522;SDS011;40093;43.224;27.910;2023-02-01T11:33:50;8.93;;;4.97;;
11522;SDS011;40093;43.224;27.910;2023-02-01T11:36:21;8.53;;;5.40;;
11522;SDS011;40093;43.224;27.910;2023-02-01T11:38:54;10.20;;;5.17;;
11522;SDS011;40093;43.224;27.910;2023-02-01T11:41:40;8.27;;;5.30;;
11522;SDS011;40093;43.224;27.910;2023-02-01T11:44:19;8.53;;;5.03;;
11522;SDS011;40093;43.224;27.910;2023-02-01T11:46:48;11.00;;;4.87;;
11522;SDS011;40093;43.224;27.910;2023-02-01T11:49:19;9.37;;;5.03;;
11522;SDS011;40093;43.224;27.910;2023-02-01T11:51:51;9.30;;;5.47;;
11522;SDS011;40093;43.224;27.910;2023-02-01T11:54:41;7.27;;;4.90;;
11522;SDS011;40093;43.224;27.910;2023-02-01T11:57:23;7.67;;;4.77;;
11522;SDS011;40093;43.224;27.910;2023-02-01T12:00:08;11.03;;;5.70;;
11522;SDS011;40093;43.224;27.910;2023-02-01T12:02:49;8.60;;;5.50;;
11522;SDS011;40093;43.224;27.910;2023-02-01T12:05:32;8.97;;;4.87;;
11522;SDS011;40093;43.224;27.910;2023-02-01T12:08:17;7.77;;;5.13;;
11522;SDS011;40093;43.224;27.910;2023-02-01T12:10:58;8.63;;;5.40;;
11522;SDS011;40093;43.224;27.910;2023-02-01T12:13:38;8.53;;;5.80;;
11522;SDS011;40093;43.224;27.910;2023-02-01T12:16:18;7.27;;;5.57;;
11522;SDS011;40093;43.224;27.910;2023-02-01T12:21:57;6.67;;;4.77;;
11522;SDS011;40093;43.224;27.910;2023-02-01T12:24:45;7.47;;;5.50;;
11522;SDS011;40093;43.224;27.910;2023-02-01T12:27:31;10.40;;;6.50;;
11522;SDS011;40093;43.224;27.910;2023-02-01T12:30:31;6.07;;;5.00;;
11522;SDS011;40093;43.224;27.910;2023-02-01T12:33:24;10.23;;;5.77;;
11522;SDS011;40093;43.224;27.910;2023-02-01T12:36:05;9.37;;;6.10;;
11522;SDS011;40093;43.224;27.910;2023-02-01T12:38:49;10.47;;;5.27;;
11522;SDS011;40093;43.224;27.910;2023-02-01T12:41:24;8.23;;;4.90;;
11522;SDS011;40093;43.224;27.910;2023-02-01T12:44:12;8.70;;;4.93;;
11522;SDS011;40093;43.224;27.910;2023-02-01T12:46:58;6.90;;;4.83;;
11522;SDS011;40093;43.224;27.910;2023-02-01T12:49:31;5.47;;;4.70;;
11522;SDS011;40093;43.224;27.910;2023-02-01T12:52:09;5.37;;;4.67;;
11522;SDS011;40093;43.224;27.910;2023-02-01T12:54:41;5.30;;;4.60;;
11522;SDS011;40093;43.224;27.910;2023-02-01T12:57:14;7.43;;;4.40;;
11522;SDS011;40093;43.224;27.910;2023-02-01T12:59:48;5.53;;;4.13;;
11522;SDS011;40093;43.224;27.910;2023-02-01T13:02:27;7.83;;;4.40;;
11522;SDS011;40093;43.224;27.910;2023-02-01T13:05:03;6.57;;;4.00;;
11522;SDS011;40093;43.224;27.910;2023-02-01T13:07:39;6.00;;;4.40;;
11522;SDS011;40093;43.224;27.910;2023-02-01T13:10:12;13.10;;;4.60;;
11522;SDS011;40093;43.224;27.910;2023-02-01T13:12:44;6.00;;;4.20;;
11522;SDS011;40093;43.224;27.910;2023-02-01T13:15:19;8.33;;;4.63;;
11522;SDS011;40093;43.224;27.910;2023-02-01T13:17:51;5.83;;;4.43;;
11522;SDS011;40093;43.224;27.910;2023-02-01T13:20:21;5.93;;;4.60;;
11522;SDS011;40093;43.224;27.910;2023-02-01T13:22:54;16.90;;;4.77;;
11522;SDS011;40093;43.224;27.910;2023-02-01T13:25:27;12.07;;;5.43;;
11522;SDS011;40093;43.224;27.910;2023-02-01T13:28:01;6.10;;;4.43;;
11522;SDS011;40093;43.224;27.910;2023-02-01T13:30:38;12.57;;;4.97;;
11522;SDS011;40093;43.224;27.910;2023-02-01T13:33:30;10.40;;;4.13;;
11522;SDS011;40093;43.224;27.910;2023-02-01T13:39:17;5.37;;;3.93;;
11522;SDS011;40093;43.224;27.910;2023-02-01T13:41:55;5.30;;;4.20;;
11522;SDS011;40093;43.224;27.910;2023-02-01T13:44:26;5.47;;;4.40;;
11522;SDS011;40093;43.224;27.910;2023-02-01T13:46:59;6.17;;;4.00;;
11522;SDS011;40093;43.224;27.910;2023-02-01T13:49:30;10.60;;;4.17;;
11522;SDS011;40093;43.224;27.910;2023-02-01T13:52:03;4.73;;;3.80;;
11522;SDS011;40093;43.224;27.910;2023-02-01T13:54:31;5.13;;;3.80;;
11522;SDS011;40093;43.224;27.910;2023-02-01T13:57:00;6.60;;;4.00;;
11522;SDS011;40093;43.224;27.910;2023-02-01T13:59:36;5.07;;;4.27;;
11522;SDS011;40093;43.224;27.910;2023-02-01T14:08:44;7.57;;;3.93;;
11522;SDS011;40093;43.224;27.910;2023-02-01T14:11:36;6.03;;;4.37;;
11522;SDS011;40093;43.224;27.910;2023-02-01T14:23:09;12.63;;;7.90;;
11522;SDS011;40093;43.224;27.910;2023-02-01T14:25:40;15.40;;;11.20;;
11522;SDS011;40093;43.224;27.910;2023-02-01T14:28:11;11.60;;;8.10;;
11522;SDS011;40093;43.224;27.910;2023-02-01T14:30:47;13.57;;;9.13;;
11522;SDS011;40093;43.224;27.910;2023-02-01T14:33:19;10.17;;;7.80;;
11522;SDS011;40093;43.224;27.910;2023-02-01T14:36:05;16.13;;;11.33;;
11522;SDS011;40093;43.224;27.910;2023-02-01T14:38:35;10.03;;;7.80;;
11522;SDS011;40093;43.224;27.910;2023-02-01T14:41:15;10.30;;;6.50;;
11522;SDS011;40093;43.224;27.910;2023-02-01T14:47:27;11.13;;;8.17;;
11522;SDS011;40093;43.224;27.910;2023-02-01T14:55:52;14.33;;;9.07;;
11522;SDS011;40093;43.224;27.910;2023-02-01T14:58:28;12.47;;;9.40;;
11522;SDS011;40093;43.224;27.910;2023-02-01T15:01:01;11.83;;;8.97;;
11522;SDS011;40093;43.224;27.910;2023-02-01T15:03:34;14.10;;;9.40;;
11522;SDS011;40093;43.224;27.910;2023-02-01T15:06:13;16.83;;;8.87;;
11522;SDS011;40093;43.224;27.910;2023-02-01T15:08:48;12.13;;;8.73;;
11522;SDS011;40093;43.224;27.910;2023-02-01T15:11:19;15.67;;;8.33;;
11522;SDS011;40093;43.224;27.910;2023-02-01T15:13:48;20.13;;;10.97;;
11522;SDS011;40093;43.224;27.910;2023-02-01T15:16:19;14.90;;;9.87;;
11522;SDS011;40093;43.224;27.910;2023-02-01T15:18:47;14.70;;;8.73;;